»·PEaware :: N850PM KSAN-KVNY

N850PM :: KSAN-KVNY

FLIGHT INFORMATION

Flight Status: Arrived
Operator: Privately registered:
United States
More flights under this callsign
Pilot: Anonymous 30260 (30260)
Aircraft: SOCATA TBM-900
(TBM9)
More flights by this aircraft type
Origin: KSAN San Diego Intl-Lindbergh
United States
Destination: KVNY Van Nuys
United States
More flights between these airports :: More routes between these airports
Route: CWARD2 LAX CANOG
File this flight plan on PilotEdge
Remarks: SANP16R
Altitude:
(Current/Filed)
8,000ft
Speed:
(Current/Filed)
270kts
Departed: 19-Jul-20 12:45 PM
Arrived: 19-Jul-20 01:30 PM
Distance/Time
Traveled:
110nm/0:45
Distance/Time
To Go:
Arrived

Flight Plot

Page will automatically refresh every two minutes.


Map Options




Map Legend


Flown Route
Filed Route
Departure Airport
Arrival Airport
Navaid (VOR, NDB)
Fix

Horizontal Profiles

Position Reports

Time Latitude Longitude Heading Altitude Ground
Speed
19-Jul-20 12:25 32.732094 -117.176681 196 20ft 0kts
19-Jul-20 12:26 32.732094 -117.176681 196 20ft 0kts
19-Jul-20 12:27 32.732094 -117.176681 196 20ft 0kts
19-Jul-20 12:28 32.732094 -117.176681 196 20ft 0kts
19-Jul-20 12:29 32.732094 -117.176681 196 20ft 0kts
19-Jul-20 12:31 32.732094 -117.176681 196 20ft 0kts
19-Jul-20 12:32 32.732094 -117.176681 196 20ft 0kts
19-Jul-20 12:33 32.732094 -117.176681 196 20ft 0kts
19-Jul-20 12:34 32.732094 -117.176681 196 20ft 0kts
19-Jul-20 12:35 32.732094 -117.176681 196 20ft 0kts
19-Jul-20 12:36 32.732094 -117.176681 196 20ft 0kts
19-Jul-20 12:37 32.732094 -117.176681 196 20ft 0kts
19-Jul-20 12:38 32.732094 -117.176681 196 20ft 0kts
19-Jul-20 12:39 32.732094 -117.176681 196 20ft 0kts
19-Jul-20 12:40 32.732094 -117.176681 196 20ft 0kts
19-Jul-20 12:41 32.732094 -117.176682 196 20ft 0kts
19-Jul-20 12:42 32.732094 -117.176682 196 20ft 0kts
19-Jul-20 12:43 32.731654 -117.176798 172 19ft 7kts
19-Jul-20 12:44 32.731071 -117.175674 126 21ft 0kts
19-Jul-20 12:45 32.730868 -117.178591 286 17ft 68kts
19-Jul-20 12:46 32.744484 -117.213177 302 1842ft 137kts
19-Jul-20 12:46 32.761338 -117.245732 301 3843ft 142kts
19-Jul-20 12:48 32.786926 -117.294735 301 6078ft 176kts
19-Jul-20 12:49 32.816064 -117.343906 306 7818ft 185kts
19-Jul-20 12:49 32.845527 -117.389619 306 8002ft 229kts
19-Jul-20 12:50 32.885826 -117.452183 306 7994ft 243kts
19-Jul-20 12:52 32.934407 -117.527745 305 7992ft 247kts
19-Jul-20 12:52 32.969215 -117.581986 305 7991ft 250kts
19-Jul-20 12:53 33.011670 -117.648252 306 7989ft 252kts
19-Jul-20 12:54 33.054362 -117.715003 305 7991ft 253kts
19-Jul-20 12:55 33.106647 -117.773093 317 7991ft 256kts
19-Jul-20 12:56 33.161006 -117.828448 318 8000ft 256kts
19-Jul-20 12:57 33.222215 -117.869020 346 8008ft 258kts
19-Jul-20 12:58 33.292720 -117.886615 347 8010ft 258kts
19-Jul-20 12:59 33.363037 -117.904044 347 8007ft 258kts
19-Jul-20 13:00 33.423795 -117.946883 321 8003ft 257kts
19-Jul-20 13:01 33.480215 -118.000217 321 7746ft 266kts
19-Jul-20 13:02 33.540531 -118.057366 320 6251ft 274kts
19-Jul-20 13:03 33.598245 -118.112140 320 6016ft 256kts
19-Jul-20 13:04 33.653652 -118.164846 320 6018ft 253kts
19-Jul-20 13:05 33.708730 -118.217316 320 6018ft 251kts
19-Jul-20 13:06 33.763788 -118.269854 320 6018ft 250kts
19-Jul-20 13:07 33.818483 -118.322133 320 6017ft 250kts
19-Jul-20 13:08 33.865301 -118.366953 320 6018ft 251kts
19-Jul-20 13:09 33.920216 -118.419296 322 6025ft 250kts
19-Jul-20 13:10 33.975236 -118.468381 322 5031ft 245kts
19-Jul-20 13:11 34.030198 -118.517347 322 5024ft 247kts
19-Jul-20 13:12 34.085944 -118.567183 322 5027ft 249kts
19-Jul-20 13:13 34.145904 -118.605172 352 5020ft 248kts
19-Jul-20 13:14 34.214457 -118.615454 352 5011ft 246kts
19-Jul-20 13:15 34.282273 -118.626147 352 5007ft 245kts
19-Jul-20 13:16 34.348437 -118.636537 352 5001ft 222kts
19-Jul-20 13:17 34.403623 -118.645048 352 4995ft 180kts
19-Jul-20 13:18 34.452346 -118.646548 36 5006ft 184kts
19-Jul-20 13:19 34.470215 -118.589042 71 5017ft 179kts
19-Jul-20 13:20 34.484510 -118.532119 72 5022ft 174kts
19-Jul-20 13:21 34.452061 -118.512044 187 5091ft 154kts
19-Jul-20 13:22 34.413746 -118.509689 175 5005ft 129kts
19-Jul-20 13:23 34.378414 -118.506256 175 4996ft 127kts
19-Jul-20 13:24 34.344807 -118.502788 171 4041ft 119kts
19-Jul-20 13:25 34.311189 -118.500249 173 3315ft 119kts
19-Jul-20 13:26 34.277752 -118.496961 173 2420ft 117kts
19-Jul-20 13:27 34.248941 -118.494106 175 1737ft 99kts
19-Jul-20 13:28 34.222977 -118.491580 175 1058ft 96kts
19-Jul-20 13:29 34.205578 -118.490056 182 805ft 20kts
19-Jul-20 13:30 34.203514 -118.490773 192 805ft 0kts
19-Jul-20 13:31 34.203290 -118.490830 188 805ft 4kts
19-Jul-20 13:32 34.202955 -118.491401 356 805ft 0kts
19-Jul-20 13:33 34.202955 -118.491401 356 805ft 0kts
19-Jul-20 13:34 34.202955 -118.491401 356 805ft 0kts

Navigation Log

Ident Type
Flight plan parsing failed, navigation log unavailable